sensor_id;sensor_type;location;lat;lon;timestamp;P1;durP1;ratioP1;P2;durP2;ratioP2
47413;SDS011;33163;0.000;0.000;2023-04-01T00:01:28;19.23;;;4.88;;
47413;SDS011;33163;0.000;0.000;2023-04-01T00:03:55;19.35;;;5.57;;
47413;SDS011;33163;0.000;0.000;2023-04-01T00:06:22;17.88;;;5.60;;
47413;SDS011;33163;0.000;0.000;2023-04-01T00:08:49;17.45;;;4.75;;
47413;SDS011;33163;0.000;0.000;2023-04-01T00:11:16;22.73;;;6.10;;
47413;SDS011;33163;0.000;0.000;2023-04-01T00:13:43;21.08;;;6.13;;
47413;SDS011;33163;0.000;0.000;2023-04-01T00:16:11;22.80;;;5.20;;
47413;SDS011;33163;0.000;0.000;2023-04-01T00:18:39;24.35;;;5.45;;
47413;SDS011;33163;0.000;0.000;2023-04-01T00:21:06;21.60;;;5.85;;
47413;SDS011;33163;0.000;0.000;2023-04-01T00:23:33;20.27;;;5.10;;
47413;SDS011;33163;0.000;0.000;2023-04-01T00:26:00;19.55;;;5.30;;
47413;SDS011;33163;0.000;0.000;2023-04-01T00:28:28;19.55;;;5.65;;
47413;SDS011;33163;0.000;0.000;2023-04-01T00:30:55;21.25;;;5.68;;
47413;SDS011;33163;0.000;0.000;2023-04-01T00:33:23;18.13;;;5.72;;
47413;SDS011;33163;0.000;0.000;2023-04-01T00:35:50;17.90;;;6.10;;
47413;SDS011;33163;0.000;0.000;2023-04-01T00:38:17;23.10;;;5.38;;
47413;SDS011;33163;0.000;0.000;2023-04-01T00:40:45;22.50;;;6.05;;
47413;SDS011;33163;0.000;0.000;2023-04-01T00:43:14;19.80;;;5.25;;
47413;SDS011;33163;0.000;0.000;2023-04-01T00:45:43;22.33;;;5.68;;
47413;SDS011;33163;0.000;0.000;2023-04-01T00:48:13;17.80;;;5.45;;
47413;SDS011;33163;0.000;0.000;2023-04-01T00:50:43;19.48;;;5.38;;
47413;SDS011;33163;0.000;0.000;2023-04-01T00:53:13;18.33;;;6.30;;
47413;SDS011;33163;0.000;0.000;2023-04-01T00:55:43;26.02;;;6.25;;
47413;SDS011;33163;0.000;0.000;2023-04-01T00:58:16;20.23;;;6.20;;
47413;SDS011;33163;0.000;0.000;2023-04-01T01:00:46;21.58;;;6.15;;
47413;SDS011;33163;0.000;0.000;2023-04-01T01:03:15;23.30;;;5.75;;
47413;SDS011;33163;0.000;0.000;2023-04-01T01:05:49;23.13;;;6.40;;
47413;SDS011;33163;0.000;0.000;2023-04-01T01:08:31;18.83;;;5.22;;
47413;SDS011;33163;0.000;0.000;2023-04-01T01:11:11;24.45;;;6.00;;
47413;SDS011;33163;0.000;0.000;2023-04-01T01:13:40;19.23;;;5.70;;
47413;SDS011;33163;0.000;0.000;2023-04-01T01:16:15;17.17;;;5.32;;
47413;SDS011;33163;0.000;0.000;2023-04-01T01:18:50;16.00;;;4.53;;
47413;SDS011;33163;0.000;0.000;2023-04-01T01:21:36;18.63;;;5.38;;
47413;SDS011;33163;0.000;0.000;2023-04-01T01:24:27;18.95;;;5.50;;
47413;SDS011;33163;0.000;0.000;2023-04-01T01:27:06;19.08;;;5.93;;
47413;SDS011;33163;0.000;0.000;2023-04-01T01:29:42;19.75;;;5.80;;
47413;SDS011;33163;0.000;0.000;2023-04-01T01:35:22;21.70;;;5.72;;
47413;SDS011;33163;0.000;0.000;2023-04-01T01:37:53;20.33;;;5.82;;
47413;SDS011;33163;0.000;0.000;2023-04-01T01:40:22;12.27;;;5.05;;
47413;SDS011;33163;0.000;0.000;2023-04-01T01:42:51;17.40;;;5.25;;
47413;SDS011;33163;0.000;0.000;2023-04-01T01:45:23;13.40;;;4.80;;
47413;SDS011;33163;0.000;0.000;2023-04-01T01:47:52;19.17;;;5.50;;
47413;SDS011;33163;0.000;0.000;2023-04-01T01:50:19;15.63;;;5.25;;
47413;SDS011;33163;0.000;0.000;2023-04-01T01:52:50;13.48;;;4.68;;
47413;SDS011;33163;0.000;0.000;2023-04-01T01:55:24;15.70;;;5.88;;
47413;SDS011;33163;0.000;0.000;2023-04-01T01:57:53;14.00;;;4.18;;
47413;SDS011;33163;0.000;0.000;2023-04-01T02:00:24;11.77;;;4.47;;
47413;SDS011;33163;0.000;0.000;2023-04-01T02:02:52;14.27;;;4.78;;
47413;SDS011;33163;0.000;0.000;2023-04-01T02:05:21;15.88;;;4.70;;
47413;SDS011;33163;0.000;0.000;2023-04-01T02:07:52;13.60;;;4.18;;
47413;SDS011;33163;0.000;0.000;2023-04-01T02:10:25;14.13;;;4.57;;
47413;SDS011;33163;0.000;0.000;2023-04-01T02:12:56;14.63;;;4.38;;
47413;SDS011;33163;0.000;0.000;2023-04-01T02:15:27;15.20;;;4.82;;
47413;SDS011;33163;0.000;0.000;2023-04-01T02:17:59;13.40;;;4.85;;
47413;SDS011;33163;0.000;0.000;2023-04-01T02:20:28;11.80;;;3.97;;
47413;SDS011;33163;0.000;0.000;2023-04-01T02:22:56;9.88;;;4.18;;
47413;SDS011;33163;0.000;0.000;2023-04-01T02:25:25;11.68;;;3.80;;
47413;SDS011;33163;0.000;0.000;2023-04-01T02:27:53;10.45;;;3.53;;
47413;SDS011;33163;0.000;0.000;2023-04-01T02:30:22;15.73;;;4.32;;
47413;SDS011;33163;0.000;0.000;2023-04-01T02:32:50;9.15;;;3.42;;
47413;SDS011;33163;0.000;0.000;2023-04-01T02:35:17;10.10;;;3.53;;
47413;SDS011;33163;0.000;0.000;2023-04-01T02:37:46;8.77;;;2.95;;
47413;SDS011;33163;0.000;0.000;2023-04-01T02:40:15;12.00;;;3.55;;
47413;SDS011;33163;0.000;0.000;2023-04-01T02:42:43;12.20;;;3.15;;
47413;SDS011;33163;0.000;0.000;2023-04-01T02:45:10;8.73;;;3.15;;
47413;SDS011;33163;0.000;0.000;2023-04-01T02:47:37;11.85;;;4.13;;
47413;SDS011;33163;0.000;0.000;2023-04-01T02:50:05;11.70;;;3.47;;
47413;SDS011;33163;0.000;0.000;2023-04-01T02:52:32;10.43;;;3.47;;
47413;SDS011;33163;0.000;0.000;2023-04-01T02:55:01;8.57;;;3.15;;
47413;SDS011;33163;0.000;0.000;2023-04-01T02:57:28;9.23;;;3.40;;
47413;SDS011;33163;0.000;0.000;2023-04-01T02:59:55;11.05;;;3.25;;
47413;SDS011;33163;0.000;0.000;2023-04-01T03:02:21;6.90;;;2.90;;
47413;SDS011;33163;0.000;0.000;2023-04-01T03:04:48;7.68;;;3.17;;
47413;SDS011;33163;0.000;0.000;2023-04-01T03:07:15;7.57;;;2.58;;
47413;SDS011;33163;0.000;0.000;2023-04-01T03:09:42;8.80;;;2.80;;
47413;SDS011;33163;0.000;0.000;2023-04-01T03:12:10;11.43;;;2.63;;
47413;SDS011;33163;0.000;0.000;2023-04-01T03:14:36;9.43;;;3.78;;
47413;SDS011;33163;0.000;0.000;2023-04-01T03:17:03;8.20;;;3.05;;
47413;SDS011;33163;0.000;0.000;2023-04-01T03:19:30;7.53;;;2.90;;
47413;SDS011;33163;0.000;0.000;2023-04-01T03:21:57;7.82;;;2.95;;
47413;SDS011;33163;0.000;0.000;2023-04-01T03:24:23;8.55;;;3.38;;
47413;SDS011;33163;0.000;0.000;2023-04-01T03:26:50;7.65;;;3.15;;
47413;SDS011;33163;0.000;0.000;2023-04-01T03:29:18;5.65;;;2.80;;
47413;SDS011;33163;0.000;0.000;2023-04-01T03:31:45;6.53;;;2.90;;
47413;SDS011;33163;0.000;0.000;2023-04-01T03:34:12;11.40;;;3.53;;
47413;SDS011;33163;0.000;0.000;2023-04-01T03:36:39;8.63;;;2.78;;
47413;SDS011;33163;0.000;0.000;2023-04-01T03:39:05;8.93;;;2.50;;
47413;SDS011;33163;0.000;0.000;2023-04-01T03:41:32;8.18;;;3.20;;
47413;SDS011;33163;0.000;0.000;2023-04-01T03:44:01;5.35;;;2.38;;
47413;SDS011;33163;0.000;0.000;2023-04-01T03:46:29;5.22;;;2.33;;
47413;SDS011;33163;0.000;0.000;2023-04-01T03:48:55;7.13;;;2.60;;
47413;SDS011;33163;0.000;0.000;2023-04-01T03:51:22;5.40;;;2.33;;
47413;SDS011;33163;0.000;0.000;2023-04-01T03:53:49;9.95;;;3.05;;
47413;SDS011;33163;0.000;0.000;2023-04-01T03:56:16;7.15;;;2.88;;
47413;SDS011;33163;0.000;0.000;2023-04-01T03:58:42;6.40;;;2.50;;
47413;SDS011;33163;0.000;0.000;2023-04-01T04:01:13;9.38;;;3.08;;
47413;SDS011;33163;0.000;0.000;2023-04-01T04:03:42;5.30;;;2.20;;
47413;SDS011;33163;0.000;0.000;2023-04-01T04:06:11;5.68;;;2.40;;
47413;SDS011;33163;0.000;0.000;2023-04-01T04:08:38;6.50;;;2.58;;
47413;SDS011;33163;0.000;0.000;2023-04-01T04:11:05;7.18;;;2.50;;
47413;SDS011;33163;0.000;0.000;2023-04-01T04:13:32;6.20;;;2.65;;
47413;SDS011;33163;0.000;0.000;2023-04-01T04:15:58;6.25;;;2.10;;
47413;SDS011;33163;0.000;0.000;2023-04-01T04:18:25;5.30;;;2.20;;
47413;SDS011;33163;0.000;0.000;2023-04-01T04:20:53;7.72;;;2.65;;
47413;SDS011;33163;0.000;0.000;2023-04-01T04:23:20;5.40;;;1.80;;
47413;SDS011;33163;0.000;0.000;2023-04-01T04:25:57;7.22;;;2.50;;
47413;SDS011;33163;0.000;0.000;2023-04-01T04:28:25;5.30;;;2.20;;
47413;SDS011;33163;0.000;0.000;2023-04-01T04:30:52;5.53;;;2.55;;
47413;SDS011;33163;0.000;0.000;2023-04-01T04:33:19;4.63;;;2.20;;
47413;SDS011;33163;0.000;0.000;2023-04-01T04:35:46;4.75;;;2.40;;
47413;SDS011;33163;0.000;0.000;2023-04-01T04:38:15;5.47;;;2.13;;
47413;SDS011;33163;0.000;0.000;2023-04-01T04:40:42;6.20;;;2.60;;
47413;SDS011;33163;0.000;0.000;2023-04-01T04:43:11;7.68;;;2.05;;
47413;SDS011;33163;0.000;0.000;2023-04-01T04:45:39;3.08;;;1.80;;
47413;SDS011;33163;0.000;0.000;2023-04-01T04:48:06;5.32;;;2.00;;
47413;SDS011;33163;0.000;0.000;2023-04-01T04:50:34;6.80;;;2.13;;
47413;SDS011;33163;0.000;0.000;2023-04-01T04:53:01;6.20;;;2.05;;
47413;SDS011;33163;0.000;0.000;2023-04-01T04:55:30;8.07;;;2.25;;
47413;SDS011;33163;0.000;0.000;2023-04-01T04:57:56;3.80;;;2.03;;
47413;SDS011;33163;0.000;0.000;2023-04-01T05:00:23;4.80;;;2.13;;
47413;SDS011;33163;0.000;0.000;2023-04-01T05:02:50;4.68;;;2.20;;
47413;SDS011;33163;0.000;0.000;2023-04-01T05:05:17;6.15;;;2.30;;
47413;SDS011;33163;0.000;0.000;2023-04-01T05:07:44;5.40;;;2.08;;
47413;SDS011;33163;0.000;0.000;2023-04-01T05:10:11;3.63;;;1.90;;
47413;SDS011;33163;0.000;0.000;2023-04-01T05:12:39;5.18;;;1.75;;
47413;SDS011;33163;0.000;0.000;2023-04-01T05:15:06;5.68;;;1.90;;
47413;SDS011;33163;0.000;0.000;2023-04-01T05:17:33;9.18;;;2.08;;
47413;SDS011;33163;0.000;0.000;2023-04-01T05:20:00;7.38;;;1.65;;
47413;SDS011;33163;0.000;0.000;2023-04-01T05:22:28;8.77;;;2.30;;
47413;SDS011;33163;0.000;0.000;2023-04-01T05:24:55;4.47;;;1.98;;
47413;SDS011;33163;0.000;0.000;2023-04-01T05:27:21;4.15;;;1.75;;
47413;SDS011;33163;0.000;0.000;2023-04-01T05:29:49;7.97;;;2.60;;
47413;SDS011;33163;0.000;0.000;2023-04-01T05:32:16;4.97;;;2.30;;
47413;SDS011;33163;0.000;0.000;2023-04-01T05:34:43;6.13;;;1.83;;
47413;SDS011;33163;0.000;0.000;2023-04-01T05:37:10;4.70;;;1.73;;
47413;SDS011;33163;0.000;0.000;2023-04-01T05:39:37;4.30;;;1.85;;
47413;SDS011;33163;0.000;0.000;2023-04-01T05:42:05;2.72;;;1.55;;
47413;SDS011;33163;0.000;0.000;2023-04-01T05:44:32;4.80;;;2.15;;
47413;SDS011;33163;0.000;0.000;2023-04-01T05:47:01;5.55;;;1.67;;
47413;SDS011;33163;0.000;0.000;2023-04-01T05:49:28;4.75;;;1.80;;
47413;SDS011;33163;0.000;0.000;2023-04-01T05:51:55;5.55;;;2.22;;
47413;SDS011;33163;0.000;0.000;2023-04-01T05:54:22;3.85;;;1.83;;
47413;SDS011;33163;0.000;0.000;2023-04-01T05:56:49;4.63;;;2.13;;
47413;SDS011;33163;0.000;0.000;2023-04-01T05:59:16;6.47;;;2.10;;
47413;SDS011;33163;0.000;0.000;2023-04-01T06:01:42;4.38;;;1.83;;
47413;SDS011;33163;0.000;0.000;2023-04-01T06:04:12;4.25;;;1.90;;
47413;SDS011;33163;0.000;0.000;2023-04-01T06:06:40;4.07;;;1.70;;
47413;SDS011;33163;0.000;0.000;2023-04-01T06:09:10;3.90;;;1.88;;
47413;SDS011;33163;0.000;0.000;2023-04-01T06:11:42;3.92;;;1.80;;
47413;SDS011;33163;0.000;0.000;2023-04-01T06:14:22;5.03;;;1.92;;
47413;SDS011;33163;0.000;0.000;2023-04-01T06:17:03;5.72;;;2.17;;
47413;SDS011;33163;0.000;0.000;2023-04-01T06:19:41;4.00;;;2.08;;
47413;SDS011;33163;0.000;0.000;2023-04-01T06:22:17;9.73;;;2.03;;
47413;SDS011;33163;0.000;0.000;2023-04-01T06:24:58;6.18;;;1.80;;
47413;SDS011;33163;0.000;0.000;2023-04-01T06:27:50;7.32;;;2.40;;
47413;SDS011;33163;0.000;0.000;2023-04-01T06:30:30;4.68;;;2.15;;
47413;SDS011;33163;0.000;0.000;2023-04-01T06:33:13;5.50;;;1.90;;
47413;SDS011;33163;0.000;0.000;2023-04-01T06:36:04;5.30;;;1.73;;
47413;SDS011;33163;0.000;0.000;2023-04-01T06:38:55;4.30;;;1.80;;
47413;SDS011;33163;0.000;0.000;2023-04-01T06:41:44;6.15;;;2.25;;
47413;SDS011;33163;0.000;0.000;2023-04-01T06:44:33;3.78;;;1.67;;
47413;SDS011;33163;0.000;0.000;2023-04-01T06:47:11;10.05;;;2.22;;
47413;SDS011;33163;0.000;0.000;2023-04-01T06:49:50;3.97;;;1.98;;
47413;SDS011;33163;0.000;0.000;2023-04-01T06:52:28;6.80;;;2.20;;
47413;SDS011;33163;0.000;0.000;2023-04-01T06:55:09;10.23;;;2.28;;
47413;SDS011;33163;0.000;0.000;2023-04-01T06:57:47;6.72;;;2.63;;
47413;SDS011;33163;0.000;0.000;2023-04-01T07:00:18;6.43;;;2.00;;
47413;SDS011;33163;0.000;0.000;2023-04-01T07:02:52;6.77;;;1.80;;
47413;SDS011;33163;0.000;0.000;2023-04-01T07:05:26;7.93;;;2.00;;
47413;SDS011;33163;0.000;0.000;2023-04-01T07:08:01;7.22;;;2.10;;
47413;SDS011;33163;0.000;0.000;2023-04-01T07:10:33;7.18;;;1.95;;
47413;SDS011;33163;0.000;0.000;2023-04-01T07:13:10;5.88;;;2.03;;
47413;SDS011;33163;0.000;0.000;2023-04-01T07:15:42;3.85;;;1.73;;
47413;SDS011;33163;0.000;0.000;2023-04-01T07:18:12;12.90;;;2.75;;
47413;SDS011;33163;0.000;0.000;2023-04-01T07:20:43;6.50;;;1.90;;
47413;SDS011;33163;0.000;0.000;2023-04-01T07:23:15;9.18;;;1.85;;
47413;SDS011;33163;0.000;0.000;2023-04-01T07:25:47;3.70;;;1.88;;
47413;SDS011;33163;0.000;0.000;2023-04-01T07:28:18;6.63;;;2.35;;
47413;SDS011;33163;0.000;0.000;2023-04-01T07:30:47;3.58;;;1.90;;
47413;SDS011;33163;0.000;0.000;2023-04-01T07:33:25;7.82;;;2.03;;
47413;SDS011;33163;0.000;0.000;2023-04-01T07:36:01;6.10;;;1.80;;
47413;SDS011;33163;0.000;0.000;2023-04-01T07:38:35;4.63;;;1.42;;
47413;SDS011;33163;0.000;0.000;2023-04-01T07:41:15;4.50;;;1.50;;
47413;SDS011;33163;0.000;0.000;2023-04-01T07:43:54;3.53;;;1.92;;
47413;SDS011;33163;0.000;0.000;2023-04-01T07:46:45;3.53;;;1.85;;
47413;SDS011;33163;0.000;0.000;2023-04-01T07:49:22;7.55;;;2.35;;
47413;SDS011;33163;0.000;0.000;2023-04-01T07:51:56;5.72;;;2.25;;
47413;SDS011;33163;0.000;0.000;2023-04-01T07:54:32;5.70;;;2.47;;
47413;SDS011;33163;0.000;0.000;2023-04-01T07:57:07;5.30;;;2.13;;
47413;SDS011;33163;0.000;0.000;2023-04-01T07:59:41;7.50;;;2.20;;
47413;SDS011;33163;0.000;0.000;2023-04-01T08:02:20;4.43;;;2.10;;
47413;SDS011;33163;0.000;0.000;2023-04-01T08:04:57;5.78;;;2.03;;
47413;SDS011;33163;0.000;0.000;2023-04-01T08:07:32;3.33;;;2.00;;
47413;SDS011;33163;0.000;0.000;2023-04-01T08:10:07;4.95;;;2.42;;
47413;SDS011;33163;0.000;0.000;2023-04-01T08:12:41;4.63;;;2.35;;
47413;SDS011;33163;0.000;0.000;2023-04-01T08:15:19;7.00;;;2.90;;
47413;SDS011;33163;0.000;0.000;2023-04-01T08:17:54;7.70;;;2.42;;
47413;SDS011;33163;0.000;0.000;2023-04-01T08:20:32;8.02;;;2.42;;
47413;SDS011;33163;0.000;0.000;2023-04-01T08:23:05;6.07;;;2.63;;
47413;SDS011;33163;0.000;0.000;2023-04-01T08:25:39;8.07;;;3.10;;
47413;SDS011;33163;0.000;0.000;2023-04-01T08:28:13;7.03;;;3.03;;
47413;SDS011;33163;0.000;0.000;2023-04-01T08:30:44;6.57;;;2.58;;
47413;SDS011;33163;0.000;0.000;2023-04-01T08:33:16;10.73;;;2.97;;
47413;SDS011;33163;0.000;0.000;2023-04-01T08:35:48;7.80;;;3.35;;
47413;SDS011;33163;0.000;0.000;2023-04-01T08:38:21;8.70;;;3.20;;
47413;SDS011;33163;0.000;0.000;2023-04-01T08:40:58;14.43;;;3.88;;
47413;SDS011;33163;0.000;0.000;2023-04-01T08:43:30;16.17;;;4.10;;
47413;SDS011;33163;0.000;0.000;2023-04-01T08:46:19;10.15;;;3.50;;
47413;SDS011;33163;0.000;0.000;2023-04-01T08:49:09;16.17;;;4.78;;
47413;SDS011;33163;0.000;0.000;2023-04-01T08:51:55;11.65;;;3.92;;
47413;SDS011;33163;0.000;0.000;2023-04-01T08:54:46;10.35;;;3.58;;
47413;SDS011;33163;0.000;0.000;2023-04-01T08:57:34;14.82;;;3.72;;
47413;SDS011;33163;0.000;0.000;2023-04-01T09:00:12;12.75;;;3.15;;
47413;SDS011;33163;0.000;0.000;2023-04-01T09:02:49;11.60;;;4.25;;
47413;SDS011;33163;0.000;0.000;2023-04-01T09:05:27;10.32;;;3.10;;
47413;SDS011;33163;0.000;0.000;2023-04-01T09:08:05;10.73;;;3.38;;
47413;SDS011;33163;0.000;0.000;2023-04-01T09:11:05;6.50;;;3.45;;
47413;SDS011;33163;0.000;0.000;2023-04-01T09:13:39;10.40;;;3.35;;
47413;SDS011;33163;0.000;0.000;2023-04-01T09:16:27;6.10;;;2.80;;
47413;SDS011;33163;0.000;0.000;2023-04-01T09:19:16;5.55;;;2.75;;
47413;SDS011;33163;0.000;0.000;2023-04-01T09:21:57;8.75;;;2.60;;
47413;SDS011;33163;0.000;0.000;2023-04-01T09:27:35;14.55;;;3.45;;
47413;SDS011;33163;0.000;0.000;2023-04-01T09:36:24;9.45;;;2.72;;
47413;SDS011;33163;0.000;0.000;2023-04-01T09:39:10;9.63;;;3.40;;
47413;SDS011;33163;0.000;0.000;2023-04-01T09:41:57;7.55;;;2.47;;
47413;SDS011;33163;0.000;0.000;2023-04-01T09:44:41;7.78;;;3.60;;
47413;SDS011;33163;0.000;0.000;2023-04-01T09:47:19;9.85;;;2.75;;
47413;SDS011;33163;0.000;0.000;2023-04-01T09:50:12;8.70;;;3.10;;
47413;SDS011;33163;0.000;0.000;2023-04-01T09:52:52;9.07;;;2.55;;
47413;SDS011;33163;0.000;0.000;2023-04-01T09:58:52;6.65;;;2.65;;
47413;SDS011;33163;0.000;0.000;2023-04-01T10:01:52;10.98;;;3.30;;
47413;SDS011;33163;0.000;0.000;2023-04-01T10:07:53;11.48;;;3.03;;
47413;SDS011;33163;0.000;0.000;2023-04-01T10:14:16;8.18;;;2.78;;
47413;SDS011;33163;0.000;0.000;2023-04-01T10:17:08;9.90;;;2.97;;
47413;SDS011;33163;0.000;0.000;2023-04-01T10:20:12;9.25;;;2.90;;
47413;SDS011;33163;0.000;0.000;2023-04-01T10:23:08;4.22;;;2.20;;
47413;SDS011;33163;0.000;0.000;2023-04-01T10:31:43;11.13;;;2.65;;
47413;SDS011;33163;0.000;0.000;2023-04-01T10:34:44;5.63;;;2.50;;
47413;SDS011;33163;0.000;0.000;2023-04-01T10:40:53;6.32;;;2.92;;
47413;SDS011;33163;0.000;0.000;2023-04-01T10:46:39;5.82;;;1.98;;
47413;SDS011;33163;0.000;0.000;2023-04-01T10:49:36;6.40;;;2.55;;
47413;SDS011;33163;0.000;0.000;2023-04-01T10:55:05;6.78;;;2.25;;
47413;SDS011;33163;0.000;0.000;2023-04-01T10:58:03;7.22;;;2.30;;
47413;SDS011;33163;0.000;0.000;2023-04-01T11:01:04;13.05;;;4.32;;
47413;SDS011;33163;0.000;0.000;2023-04-01T11:03:57;12.65;;;4.68;;
47413;SDS011;33163;0.000;0.000;2023-04-01T11:06:59;7.95;;;4.35;;
47413;SDS011;33163;0.000;0.000;2023-04-01T11:12:56;9.40;;;4.85;;
47413;SDS011;33163;0.000;0.000;2023-04-01T11:15:57;11.37;;;5.17;;
47413;SDS011;33163;0.000;0.000;2023-04-01T11:25:05;22.02;;;6.30;;
47413;SDS011;33163;0.000;0.000;2023-04-01T11:31:07;14.60;;;6.22;;
47413;SDS011;33163;0.000;0.000;2023-04-01T11:33:52;17.45;;;6.18;;
47413;SDS011;33163;0.000;0.000;2023-04-01T11:36:29;14.60;;;6.07;;
47413;SDS011;33163;0.000;0.000;2023-04-01T11:39:11;18.45;;;7.30;;
47413;SDS011;33163;0.000;0.000;2023-04-01T11:41:49;11.55;;;5.45;;
47413;SDS011;33163;0.000;0.000;2023-04-01T11:44:23;16.25;;;6.32;;
47413;SDS011;33163;0.000;0.000;2023-04-01T11:46:59;16.60;;;6.22;;
47413;SDS011;33163;0.000;0.000;2023-04-01T11:49:43;14.77;;;6.13;;
47413;SDS011;33163;0.000;0.000;2023-04-01T11:57:37;16.40;;;5.70;;
47413;SDS011;33163;0.000;0.000;2023-04-01T12:00:20;19.35;;;6.75;;
47413;SDS011;33163;0.000;0.000;2023-04-01T12:03:09;12.55;;;5.47;;
47413;SDS011;33163;0.000;0.000;2023-04-01T12:05:47;10.32;;;5.10;;
47413;SDS011;33163;0.000;0.000;2023-04-01T12:08:27;11.95;;;5.28;;
47413;SDS011;33163;0.000;0.000;2023-04-01T12:11:05;11.52;;;5.72;;
47413;SDS011;33163;0.000;0.000;2023-04-01T12:13:42;17.05;;;5.95;;
47413;SDS011;33163;0.000;0.000;2023-04-01T12:16:21;16.70;;;5.47;;
47413;SDS011;33163;0.000;0.000;2023-04-01T12:19:03;9.27;;;4.60;;
47413;SDS011;33163;0.000;0.000;2023-04-01T12:21:38;9.25;;;5.03;;
47413;SDS011;33163;0.000;0.000;2023-04-01T12:24:16;12.95;;;5.13;;
47413;SDS011;33163;0.000;0.000;2023-04-01T12:27:02;11.05;;;4.65;;
47413;SDS011;33163;0.000;0.000;2023-04-01T12:32:49;9.63;;;5.03;;
47413;SDS011;33163;0.000;0.000;2023-04-01T12:35:32;10.75;;;5.05;;
47413;SDS011;33163;0.000;0.000;2023-04-01T12:38:12;9.88;;;4.25;;
47413;SDS011;33163;0.000;0.000;2023-04-01T12:40:47;9.35;;;4.55;;
47413;SDS011;33163;0.000;0.000;2023-04-01T12:43:35;9.77;;;4.00;;
47413;SDS011;33163;0.000;0.000;2023-04-01T12:46:29;10.43;;;4.90;;
47413;SDS011;33163;0.000;0.000;2023-04-01T12:49:12;9.50;;;4.15;;
47413;SDS011;33163;0.000;0.000;2023-04-01T12:52:04;10.63;;;4.35;;
47413;SDS011;33163;0.000;0.000;2023-04-01T12:54:56;7.93;;;3.83;;
47413;SDS011;33163;0.000;0.000;2023-04-01T13:00:48;7.40;;;3.95;;
47413;SDS011;33163;0.000;0.000;2023-04-01T13:03:40;7.72;;;3.60;;
47413;SDS011;33163;0.000;0.000;2023-04-01T13:09:23;9.50;;;3.50;;
47413;SDS011;33163;0.000;0.000;2023-04-01T13:15:05;5.43;;;3.22;;
47413;SDS011;33163;0.000;0.000;2023-04-01T13:17:41;20.45;;;4.13;;
47413;SDS011;33163;0.000;0.000;2023-04-01T13:20:16;5.65;;;3.58;;
47413;SDS011;33163;0.000;0.000;2023-04-01T13:22:56;9.25;;;2.97;;
47413;SDS011;33163;0.000;0.000;2023-04-01T13:25:35;6.60;;;3.20;;
47413;SDS011;33163;0.000;0.000;2023-04-01T13:28:06;8.25;;;3.42;;
47413;SDS011;33163;0.000;0.000;2023-04-01T13:30:38;6.78;;;3.65;;
47413;SDS011;33163;0.000;0.000;2023-04-01T13:33:12;10.63;;;2.85;;
47413;SDS011;33163;0.000;0.000;2023-04-01T13:35:48;8.32;;;3.42;;
47413;SDS011;33163;0.000;0.000;2023-04-01T13:38:30;7.55;;;2.85;;
47413;SDS011;33163;0.000;0.000;2023-04-01T13:41:13;5.57;;;2.97;;
47413;SDS011;33163;0.000;0.000;2023-04-01T13:43:49;7.55;;;2.95;;
47413;SDS011;33163;0.000;0.000;2023-04-01T13:49:23;10.13;;;2.63;;
47413;SDS011;33163;0.000;0.000;2023-04-01T13:52:32;5.68;;;2.65;;
47413;SDS011;33163;0.000;0.000;2023-04-01T13:55:21;6.93;;;2.53;;
47413;SDS011;33163;0.000;0.000;2023-04-01T13:58:17;11.15;;;2.42;;
47413;SDS011;33163;0.000;0.000;2023-04-01T14:01:00;6.38;;;2.63;;
47413;SDS011;33163;0.000;0.000;2023-04-01T14:06:34;7.50;;;2.35;;
47413;SDS011;33163;0.000;0.000;2023-04-01T14:12:09;5.68;;;2.20;;
47413;SDS011;33163;0.000;0.000;2023-04-01T14:14:48;4.95;;;2.47;;
47413;SDS011;33163;0.000;0.000;2023-04-01T14:17:31;7.72;;;2.42;;
47413;SDS011;33163;0.000;0.000;2023-04-01T14:20:17;7.53;;;2.38;;
47413;SDS011;33163;0.000;0.000;2023-04-01T14:23:05;8.98;;;2.55;;
47413;SDS011;33163;0.000;0.000;2023-04-01T14:25:46;5.97;;;2.15;;
47413;SDS011;33163;0.000;0.000;2023-04-01T14:28:31;4.90;;;1.75;;
47413;SDS011;33163;0.000;0.000;2023-04-01T14:31:15;3.28;;;1.67;;
47413;SDS011;33163;0.000;0.000;2023-04-01T14:33:57;4.57;;;2.08;;
47413;SDS011;33163;0.000;0.000;2023-04-01T14:36:35;9.73;;;2.28;;
47413;SDS011;33163;0.000;0.000;2023-04-01T14:39:20;5.25;;;2.45;;
47413;SDS011;33163;0.000;0.000;2023-04-01T14:41:58;9.82;;;2.78;;
47413;SDS011;33163;0.000;0.000;2023-04-01T14:44:53;4.78;;;1.98;;
47413;SDS011;33163;0.000;0.000;2023-04-01T14:47:41;8.02;;;2.28;;
47413;SDS011;33163;0.000;0.000;2023-04-01T14:50:12;3.88;;;1.80;;
47413;SDS011;33163;0.000;0.000;2023-04-01T14:52:54;4.47;;;2.30;;
47413;SDS011;33163;0.000;0.000;2023-04-01T14:55:29;7.28;;;2.08;;
47413;SDS011;33163;0.000;0.000;2023-04-01T14:58:00;6.80;;;2.53;;
47413;SDS011;33163;0.000;0.000;2023-04-01T15:00:41;4.75;;;1.98;;
47413;SDS011;33163;0.000;0.000;2023-04-01T15:03:18;9.43;;;2.22;;
47413;SDS011;33163;0.000;0.000;2023-04-01T15:05:49;10.52;;;2.30;;
47413;SDS011;33163;0.000;0.000;2023-04-01T15:08:22;6.03;;;1.70;;
47413;SDS011;33163;0.000;0.000;2023-04-01T15:11:04;7.65;;;3.30;;
47413;SDS011;33163;0.000;0.000;2023-04-01T15:13:50;7.80;;;2.15;;
47413;SDS011;33163;0.000;0.000;2023-04-01T15:16:27;5.43;;;1.80;;
47413;SDS011;33163;0.000;0.000;2023-04-01T15:19:04;5.75;;;1.60;;
47413;SDS011;33163;0.000;0.000;2023-04-01T15:21:45;4.78;;;2.10;;
47413;SDS011;33163;0.000;0.000;2023-04-01T15:24:22;4.70;;;1.77;;
47413;SDS011;33163;0.000;0.000;2023-04-01T15:27:01;5.20;;;1.85;;
47413;SDS011;33163;0.000;0.000;2023-04-01T15:29:43;10.02;;;1.95;;
47413;SDS011;33163;0.000;0.000;2023-04-01T15:32:46;6.90;;;2.05;;
47413;SDS011;33163;0.000;0.000;2023-04-01T15:35:29;8.02;;;2.75;;
47413;SDS011;33163;0.000;0.000;2023-04-01T15:38:04;9.65;;;2.60;;
47413;SDS011;33163;0.000;0.000;2023-04-01T15:40:36;7.20;;;2.60;;
47413;SDS011;33163;0.000;0.000;2023-04-01T15:43:12;5.70;;;2.30;;
47413;SDS011;33163;0.000;0.000;2023-04-01T15:45:51;9.18;;;1.85;;
47413;SDS011;33163;0.000;0.000;2023-04-01T15:48:31;6.43;;;2.13;;
47413;SDS011;33163;0.000;0.000;2023-04-01T15:51:19;9.38;;;2.42;;
47413;SDS011;33163;0.000;0.000;2023-04-01T15:54:19;11.57;;;2.55;;
47413;SDS011;33163;0.000;0.000;2023-04-01T15:57:11;10.90;;;2.47;;
47413;SDS011;33163;0.000;0.000;2023-04-01T16:02:43;8.75;;;2.75;;
47413;SDS011;33163;0.000;0.000;2023-04-01T16:05:22;7.22;;;2.17;;
47413;SDS011;33163;0.000;0.000;2023-04-01T16:07:59;8.20;;;2.17;;
47413;SDS011;33163;0.000;0.000;2023-04-01T16:10:44;8.70;;;2.13;;
47413;SDS011;33163;0.000;0.000;2023-04-01T16:13:24;12.30;;;2.22;;
47413;SDS011;33163;0.000;0.000;2023-04-01T16:16:05;6.10;;;1.83;;
47413;SDS011;33163;0.000;0.000;2023-04-01T16:18:43;6.18;;;1.95;;
47413;SDS011;33163;0.000;0.000;2023-04-01T16:21:24;5.15;;;2.00;;
47413;SDS011;33163;0.000;0.000;2023-04-01T16:24:04;6.63;;;2.00;;
47413;SDS011;33163;0.000;0.000;2023-04-01T16:26:43;8.45;;;2.30;;
47413;SDS011;33163;0.000;0.000;2023-04-01T16:29:18;8.15;;;2.40;;
47413;SDS011;33163;0.000;0.000;2023-04-01T16:31:52;24.40;;;5.53;;
47413;SDS011;33163;0.000;0.000;2023-04-01T16:34:27;74.72;;;19.10;;
47413;SDS011;33163;0.000;0.000;2023-04-01T16:37:03;51.42;;;15.82;;
47413;SDS011;33163;0.000;0.000;2023-04-01T16:39:36;43.80;;;13.25;;
47413;SDS011;33163;0.000;0.000;2023-04-01T16:42:20;34.72;;;10.43;;
47413;SDS011;33163;0.000;0.000;2023-04-01T16:44:59;34.15;;;9.05;;
47413;SDS011;33163;0.000;0.000;2023-04-01T16:47:35;27.30;;;9.35;;
47413;SDS011;33163;0.000;0.000;2023-04-01T16:50:12;24.90;;;7.00;;
47413;SDS011;33163;0.000;0.000;2023-04-01T16:52:48;34.05;;;7.10;;
47413;SDS011;33163;0.000;0.000;2023-04-01T16:55:33;23.55;;;6.78;;
47413;SDS011;33163;0.000;0.000;2023-04-01T16:58:01;29.05;;;7.07;;
47413;SDS011;33163;0.000;0.000;2023-04-01T17:00:28;29.75;;;6.35;;
47413;SDS011;33163;0.000;0.000;2023-04-01T17:03:04;24.17;;;6.47;;
47413;SDS011;33163;0.000;0.000;2023-04-01T17:05:44;18.90;;;6.45;;
47413;SDS011;33163;0.000;0.000;2023-04-01T17:08:22;17.80;;;5.53;;